Etusivu
METAR-TAF:

METAR-TAF

Lentoasemat :

Yuma, Arizona, Yhdysvallat

Leveyspiiri: 32-37-25N, Pituuspiiri: 113-45-50W, korkeus merenpinnasta: 64 m

Tämänhetkinen sää

Tämä raportti tehtiin 4 minuuttia sitten, kello 10.57 UTC
tyyntä
Lämpötila 11°C
Kosteus 71%
Ilmanpaine 1020 hPa
Näkyvyys: 16.1 km
selkeää

METAR: KNYL 231057Z AUTO 00000KT 10SM CLR 11/06 A3011 RMK AO2 SLP196 T01060056 $

Aika: 04:01 (11:01 UTC)

Sääennuste

Ennuste voimassa 23. päivästä klo 03 UTC - 24. päivään klo 03 UTC
Tuuli 5 kn eri suunnista
Näkyvyys: 2314 m
Muutamia pilviä 10000 ft:n korkeudessa

TAF: KNYL 2303/2403 VRB05KT 9999 FEW100 QNH3006INS AUTOMATED SENSOR METWATCH 2303 TIL 2314 T09/2313Z T21/2323Z

Säähavainnot ja -ennusteet yli 4000 lentoasemalta (METAR- ja TAF-raportit).

Käytössä olevat sääasemat on merkitty karttaan keltaisilla ja punaisilla pisteillä.

Aseta hiiri pisteen päälle nähdäksesi sääaseman nimen.

Klikkaa sitten nähdäksesi säähavainnot ja -ennusteet.

Kartan vaihtaminen: klikkaa mustalla rastilla varustettuja vihreitä pisteitä, niin voit zoomata sisään; viivalla varustettua vihreää pistettä, niin voit zoomata ulos tai vihreitä nuolia, niin pääset viereisille kartoille.


METAR-TAF: